createdAt,value
2019-02-26T00:02:21.525Z,26.73
2019-02-26T00:04:53.511Z,26.87
2019-02-26T00:07:23.523Z,27.50
2019-02-26T00:09:53.569Z,27.63
2019-02-26T00:12:24.117Z,28.33
2019-02-26T00:14:55.051Z,25.93
2019-02-26T00:17:24.649Z,26.60
2019-02-26T00:19:54.170Z,26.17
2019-02-26T00:22:24.170Z,26.00
2019-02-26T00:24:52.973Z,27.20
2019-02-26T00:27:23.455Z,27.50
2019-02-26T00:29:55.180Z,27.20
2019-02-26T00:32:24.421Z,26.23
2019-02-26T00:34:55.350Z,26.33
2019-02-26T00:37:24.737Z,25.57
2019-02-26T00:39:56.391Z,26.97
2019-02-26T00:42:26.390Z,26.60
2019-02-26T00:44:57.702Z,26.43
2019-02-26T00:47:29.874Z,26.37
2019-02-26T00:49:57.561Z,26.60
2019-02-26T00:52:28.169Z,25.10
2019-02-26T00:54:58.176Z,25.97
2019-02-26T00:57:29.465Z,23.57
2019-02-26T01:00:00.730Z,24.73
2019-02-26T01:02:30.083Z,24.50
2019-02-26T01:04:59.375Z,24.83
2019-02-26T01:07:28.695Z,25.67
2019-02-26T01:09:59.263Z,26.20
2019-02-26T01:12:28.771Z,25.47
2019-02-26T01:14:57.817Z,24.40
2019-02-26T01:17:26.858Z,25.27
2019-02-26T01:19:56.492Z,25.70
2019-02-26T01:22:26.980Z,25.73
2019-02-26T01:24:58.470Z,25.37
2019-02-26T01:27:27.467Z,26.60
2019-02-26T01:29:58.230Z,24.70
2019-02-26T01:32:27.474Z,24.83
2019-02-26T01:34:56.151Z,24.33
2019-02-26T01:37:26.083Z,24.90
2019-02-26T01:39:55.681Z,23.93
2019-02-26T01:42:25.324Z,24.63
2019-02-26T01:44:55.201Z,23.83
2019-02-26T01:47:26.198Z,24.00
2019-02-26T01:49:59.309Z,23.97
2019-02-26T01:52:28.459Z,23.50
2019-02-26T01:54:58.541Z,22.40
2019-02-26T01:57:28.453Z,23.13
2019-02-26T01:59:58.218Z,23.20
2019-02-26T02:02:28.239Z,22.37
2019-02-26T02:04:59.749Z,23.30
2019-02-26T02:07:30.576Z,23.13
2019-02-26T02:10:00.487Z,23.03
2019-02-26T02:12:32.434Z,23.43
2019-02-26T02:15:01.482Z,25.77
2019-02-26T02:17:35.537Z,26.10
2019-02-26T02:20:09.992Z,26.00
2019-02-26T02:22:46.116Z,24.27
2019-02-26T02:25:15.165Z,25.13
2019-02-26T02:27:47.595Z,25.17
2019-02-26T02:30:22.345Z,25.70
2019-02-26T02:32:50.369Z,26.63
2019-02-26T02:35:19.180Z,25.30
2019-02-26T02:37:51.398Z,26.23
2019-02-26T02:40:19.966Z,25.93
2019-02-26T02:42:49.614Z,25.77
2019-02-26T02:45:21.027Z,24.73
2019-02-26T02:47:54.833Z,23.30
2019-02-26T02:50:19.636Z,22.53
2019-02-26T02:52:50.551Z,24.13
2019-02-26T02:55:19.479Z,23.17
2019-02-26T02:57:51.868Z,22.33
2019-02-26T03:00:21.248Z,22.60
2019-02-26T03:02:52.914Z,23.30
2019-02-26T03:05:21.787Z,24.50
2019-02-26T03:07:53.487Z,24.20
2019-02-26T03:10:26.097Z,23.97
2019-02-26T03:12:55.269Z,24.10
2019-02-26T03:15:24.560Z,25.83
2019-02-26T03:17:54.439Z,25.93
2019-02-26T03:20:24.738Z,24.30
2019-02-26T03:22:55.785Z,23.93
2019-02-26T03:25:26.993Z,24.73
2019-02-26T03:27:55.406Z,23.27
2019-02-26T03:30:31.812Z,23.40
2019-02-26T03:33:00.197Z,23.13
2019-02-26T03:35:25.653Z,22.63
2019-02-26T03:37:57.325Z,23.03
2019-02-26T03:40:27.208Z,22.30
2019-02-26T03:42:55.909Z,22.53
2019-02-26T03:45:25.267Z,22.70
2019-02-26T03:47:55.358Z,21.80
2019-02-26T03:50:27.075Z,22.97
2019-02-26T03:52:55.550Z,23.00
2019-02-26T03:55:24.351Z,21.90
2019-02-26T03:57:56.008Z,22.73
2019-02-26T04:00:23.795Z,22.47
2019-02-26T04:02:52.435Z,22.67
2019-02-26T04:05:21.117Z,21.80
2019-02-26T04:07:53.282Z,21.33
2019-02-26T04:10:20.883Z,22.27
2019-02-26T04:12:52.350Z,22.60
2019-02-26T04:15:24.254Z,22.60
2019-02-26T04:17:51.607Z,23.80
2019-02-26T04:20:20.530Z,22.00
2019-02-26T04:22:53.330Z,21.37
2019-02-26T04:25:37.695Z,21.73
2019-02-26T04:28:17.658Z,21.83
2019-02-26T04:31:17.901Z,22.57
2019-02-26T04:34:25.102Z,21.87
2019-02-26T04:37:32.736Z,22.73
2019-02-26T04:40:15.267Z,22.43
2019-02-26T04:43:07.229Z,22.03
2019-02-26T04:46:13.612Z,23.50
2019-02-26T04:48:43.838Z,23.30
2019-02-26T04:51:12.766Z,24.27
2019-02-26T04:53:41.679Z,24.50
2019-02-26T04:56:12.853Z,23.30
2019-02-26T04:58:43.340Z,23.73
2019-02-26T05:01:15.546Z,23.83
2019-02-26T05:03:44.336Z,22.63
2019-02-26T05:06:13.609Z,22.03
2019-02-26T05:08:42.919Z,24.37
2019-02-26T05:11:14.891Z,24.17
2019-02-26T05:13:44.703Z,23.57
2019-02-26T05:16:13.630Z,23.50
2019-02-26T05:18:44.468Z,22.83
2019-02-26T05:21:13.262Z,22.73
2019-02-26T05:23:42.423Z,22.67
2019-02-26T05:26:18.711Z,22.87
2019-02-26T05:28:49.744Z,22.97
2019-02-26T05:31:19.029Z,24.23
2019-02-26T05:33:49.673Z,24.20
2019-02-26T05:36:19.161Z,25.07
2019-02-26T05:38:49.381Z,24.20
2019-02-26T05:41:18.562Z,25.30
2019-02-26T05:43:52.103Z,25.97
2019-02-26T05:46:19.504Z,26.53
2019-02-26T05:48:56.130Z,25.70
2019-02-26T05:51:27.566Z,25.87
2019-02-26T05:53:56.368Z,25.23
2019-02-26T05:56:26.493Z,24.10
2019-02-26T05:58:55.416Z,23.83
2019-02-26T06:01:25.878Z,24.17
2019-02-26T06:03:57.697Z,23.60
2019-02-26T06:06:28.179Z,24.30
2019-02-26T06:08:58.021Z,23.73
2019-02-26T06:11:30.888Z,23.27
2019-02-26T06:14:01.391Z,24.07
2019-02-26T06:16:31.348Z,24.60
2019-02-26T06:19:00.230Z,25.07
2019-02-26T06:21:29.152Z,24.00
2019-02-26T06:23:58.194Z,24.43
2019-02-26T06:26:36.083Z,23.97
2019-02-26T06:29:04.679Z,24.20
2019-02-26T06:31:33.602Z,22.83
2019-02-26T06:34:05.673Z,23.53
2019-02-26T06:36:33.847Z,23.60
2019-02-26T06:39:05.916Z,24.60
2019-02-26T06:41:39.588Z,24.17
2019-02-26T06:44:07.824Z,24.23
2019-02-26T06:46:38.282Z,23.17
2019-02-26T06:49:08.059Z,23.60
2019-02-26T06:51:37.336Z,23.13
2019-02-26T06:54:07.025Z,23.37
2019-02-26T06:56:41.399Z,24.13
2019-02-26T06:59:12.276Z,24.03
2019-02-26T07:01:42.110Z,25.03
2019-02-26T07:04:12.966Z,23.20
2019-02-26T07:06:41.911Z,24.53
2019-02-26T07:09:11.549Z,24.07
2019-02-26T07:11:41.675Z,24.57
2019-02-26T07:14:11.933Z,24.23
2019-02-26T07:16:40.729Z,23.33
2019-02-26T07:19:12.250Z,22.67
2019-02-26T07:21:42.734Z,22.53
2019-02-26T07:24:13.006Z,22.77
2019-02-26T07:26:44.139Z,22.77
2019-02-26T07:29:16.668Z,23.57
2019-02-26T07:31:43.736Z,23.40
2019-02-26T07:34:13.140Z,23.43
2019-02-26T07:36:43.279Z,22.63
2019-02-26T07:39:13.562Z,23.63
2019-02-26T07:41:44.638Z,24.37
2019-02-26T07:44:18.116Z,24.17
2019-02-26T07:46:45.305Z,23.20
2019-02-26T07:49:14.470Z,23.10
2019-02-26T07:51:43.631Z,24.07
2019-02-26T07:54:12.681Z,23.00
2019-02-26T07:56:41.595Z,22.40
2019-02-26T07:59:12.549Z,22.07
2019-02-26T08:01:44.730Z,23.07
2019-02-26T08:04:15.981Z,22.07
2019-02-26T08:06:44.848Z,22.20
2019-02-26T08:09:14.735Z,22.47
2019-02-26T08:11:46.903Z,21.80
2019-02-26T08:14:18.334Z,21.87
2019-02-26T08:16:51.630Z,21.20
2019-02-26T08:19:18.702Z,21.93
2019-02-26T08:21:55.011Z,21.57
2019-02-26T08:24:25.668Z,21.40
2019-02-26T08:26:56.872Z,20.73
2019-02-26T08:29:27.275Z,28.93
2019-02-26T08:31:59.652Z,39.03
2019-02-26T08:34:32.092Z,26.47
2019-02-26T08:37:02.514Z,33.20
2019-02-26T08:39:31.794Z,27.53
2019-02-26T08:42:08.764Z,26.10
2019-02-26T08:44:38.520Z,24.27
2019-02-26T08:47:11.175Z,25.07
2019-02-26T08:49:42.637Z,23.63
2019-02-26T08:52:11.558Z,22.90
2019-02-26T08:54:41.530Z,23.27
2019-02-26T08:57:12.019Z,21.60
2019-02-26T08:59:42.247Z,19.70
2019-02-26T09:02:11.891Z,20.43
2019-02-26T09:04:42.662Z,20.93
2019-02-26T09:07:26.321Z,19.73
2019-02-26T09:09:57.567Z,20.00
2019-02-26T09:12:27.348Z,19.73
2019-02-26T09:14:56.543Z,20.20
2019-02-26T09:17:26.926Z,19.30
2019-02-26T09:20:06.995Z,20.17
2019-02-26T09:22:28.472Z,20.83
2019-02-26T09:24:59.877Z,20.80
2019-02-26T09:27:39.393Z,21.17
2019-02-26T09:30:11.756Z,21.20
2019-02-26T09:32:42.895Z,22.13
2019-02-26T09:35:12.883Z,20.43
2019-02-26T09:37:42.859Z,21.67
2019-02-26T09:40:14.083Z,21.97
2019-02-26T09:42:43.827Z,42.63
2019-02-26T09:45:17.303Z,38.90
2019-02-26T09:47:49.788Z,23.33
2019-02-26T09:50:22.467Z,26.63
2019-02-26T09:52:52.683Z,27.30
2019-02-26T09:55:21.418Z,27.43
2019-02-26T09:57:51.912Z,24.47
2019-02-26T10:00:23.652Z,24.13
2019-02-26T10:02:52.097Z,23.07
2019-02-26T10:05:21.184Z,24.70
2019-02-26T10:07:52.109Z,25.57
2019-02-26T10:10:29.188Z,26.90
2019-02-26T10:12:59.961Z,26.33
2019-02-26T10:15:28.659Z,25.30
2019-02-26T10:18:00.882Z,27.77
2019-02-26T10:20:31.511Z,31.20
2019-02-26T10:23:02.837Z,29.93
2019-02-26T10:25:32.164Z,27.83
2019-02-26T10:28:08.852Z,28.63
2019-02-26T10:30:38.686Z,24.97
2019-02-26T10:33:08.134Z,25.43
2019-02-26T10:35:39.638Z,30.73
2019-02-26T10:38:11.541Z,40.43
2019-02-26T10:40:50.719Z,29.80
2019-02-26T10:43:11.138Z,32.83
2019-02-26T10:45:42.392Z,27.83
2019-02-26T10:48:13.170Z,26.10
2019-02-26T10:50:45.043Z,24.10
2019-02-26T10:53:15.756Z,25.37
2019-02-26T10:55:44.149Z,23.90
2019-02-26T10:58:13.337Z,28.70
2019-02-26T11:00:42.840Z,25.93
2019-02-26T11:03:12.803Z,25.60
2019-02-26T11:05:43.176Z,27.53
2019-02-26T11:08:12.847Z,24.93
2019-02-26T11:10:42.638Z,24.17
2019-02-26T11:13:15.027Z,24.87
2019-02-26T11:15:43.930Z,24.80
2019-02-26T11:18:15.110Z,23.90
2019-02-26T11:20:45.827Z,25.77
2019-02-26T11:23:16.243Z,24.67
2019-02-26T11:25:45.412Z,24.47
2019-02-26T11:28:19.938Z,25.67
2019-02-26T11:30:49.858Z,24.80
2019-02-26T11:33:19.825Z,22.93
2019-02-26T11:35:51.326Z,24.67
2019-02-26T11:38:21.982Z,24.63
2019-02-26T11:40:50.430Z,23.50
2019-02-26T11:43:20.882Z,25.40
2019-02-26T11:45:50.436Z,25.20
2019-02-26T11:48:21.322Z,23.37
2019-02-26T11:50:52.002Z,23.73
2019-02-26T11:53:21.042Z,22.87
2019-02-26T11:55:52.533Z,24.07
2019-02-26T11:58:22.326Z,24.73
2019-02-26T12:00:59.687Z,23.70
2019-02-26T12:03:32.758Z,23.53
2019-02-26T12:06:02.206Z,24.83
2019-02-26T12:08:31.262Z,23.80
2019-02-26T12:11:03.543Z,24.83
2019-02-26T12:13:31.017Z,22.97
2019-02-26T12:16:00.299Z,22.80
2019-02-26T12:18:29.350Z,22.63
2019-02-26T12:21:00.224Z,22.50
2019-02-26T12:23:30.792Z,22.27
2019-02-26T12:26:02.030Z,23.27
2019-02-26T12:28:34.176Z,22.73
2019-02-26T12:31:04.264Z,23.67
2019-02-26T12:33:33.446Z,24.73
2019-02-26T12:36:04.610Z,24.20
2019-02-26T12:38:36.537Z,23.07
2019-02-26T12:41:08.200Z,22.40
2019-02-26T12:43:36.812Z,23.90
2019-02-26T12:46:08.353Z,24.37
2019-02-26T12:48:41.790Z,23.67
2019-02-26T12:51:10.890Z,23.17
2019-02-26T12:53:49.138Z,23.53
2019-02-26T12:56:16.419Z,24.13
2019-02-26T12:58:48.549Z,22.80
2019-02-26T13:01:16.672Z,24.10
2019-02-26T13:03:50.088Z,23.37
2019-02-26T13:06:18.815Z,22.63
2019-02-26T13:08:50.537Z,23.90
2019-02-26T13:11:21.115Z,23.20
2019-02-26T13:13:53.479Z,24.27
2019-02-26T13:16:22.312Z,25.40
2019-02-26T13:18:56.246Z,24.70
2019-02-26T13:21:22.678Z,25.83
2019-02-26T13:23:51.499Z,24.73
2019-02-26T13:26:22.501Z,24.50
2019-02-26T13:29:02.774Z,26.10
2019-02-26T13:31:35.660Z,26.93
2019-02-26T13:34:03.045Z,25.33
2019-02-26T13:36:36.929Z,24.00
2019-02-26T13:39:07.939Z,24.77
2019-02-26T13:41:39.270Z,23.60
2019-02-26T13:44:09.139Z,26.27
2019-02-26T13:46:38.182Z,25.67
2019-02-26T13:49:08.181Z,22.53
2019-02-26T13:51:37.352Z,23.77
2019-02-26T13:54:06.266Z,27.70
2019-02-26T13:56:35.551Z,24.23
2019-02-26T13:59:04.479Z,26.37
2019-02-26T14:01:34.481Z,24.63
2019-02-26T14:04:04.127Z,26.33
2019-02-26T14:06:33.276Z,25.80
2019-02-26T14:09:02.198Z,23.63
2019-02-26T14:11:33.406Z,22.43
2019-02-26T14:14:02.450Z,21.70
2019-02-26T14:16:32.661Z,22.00
2019-02-26T14:19:02.215Z,21.87
2019-02-26T14:21:31.131Z,23.03
2019-02-26T14:24:00.412Z,20.00
2019-02-26T14:26:30.541Z,21.67
2019-02-26T14:29:01.135Z,21.90
2019-02-26T14:31:29.938Z,23.27
2019-02-26T14:33:59.220Z,24.30
2019-02-26T14:36:29.592Z,22.40
2019-02-26T14:38:58.867Z,23.50
2019-02-26T14:41:29.016Z,22.77
2019-02-26T14:44:02.948Z,21.67
2019-02-26T14:46:36.912Z,20.60
2019-02-26T14:49:25.883Z,19.87
2019-02-26T14:52:02.239Z,24.17
2019-02-26T14:54:52.305Z,20.77
2019-02-26T14:57:27.488Z,21.63
2019-02-26T15:00:17.466Z,23.40
2019-02-26T15:02:53.081Z,24.20
2019-02-26T15:05:51.227Z,21.97
2019-02-26T15:08:34.245Z,21.20
2019-02-26T15:11:17.817Z,22.60
2019-02-26T15:13:54.276Z,20.50
2019-02-26T15:16:29.726Z,22.13
2019-02-26T15:19:03.423Z,21.87
2019-02-26T15:21:43.302Z,21.07
2019-02-26T15:24:19.069Z,20.70
2019-02-26T15:27:01.928Z,22.70
2019-02-26T15:29:38.509Z,20.13
2019-02-26T15:32:18.344Z,19.70
2019-02-26T15:34:56.090Z,19.17
2019-02-26T15:37:35.040Z,20.17
2019-02-26T15:40:13.127Z,19.93
2019-02-26T15:42:52.382Z,19.90
2019-02-26T15:45:29.672Z,19.27
2019-02-26T15:48:04.113Z,20.23
2019-02-26T15:51:14.707Z,19.90
2019-02-26T15:53:55.186Z,19.97
2019-02-26T15:56:39.151Z,19.67
2019-02-26T15:59:23.546Z,20.83
2019-02-26T16:01:57.181Z,21.27
2019-02-26T16:04:34.318Z,20.23
2019-02-26T16:07:26.281Z,20.73
2019-02-26T16:10:02.434Z,19.83
2019-02-26T16:12:43.212Z,19.97
2019-02-26T16:15:22.472Z,18.43
2019-02-26T16:18:01.963Z,18.47
2019-02-26T16:20:38.606Z,19.20
2019-02-26T16:23:17.051Z,18.97
2019-02-26T16:25:58.844Z,20.30
2019-02-26T16:28:34.955Z,19.93
2019-02-26T16:31:29.695Z,18.70
2019-02-26T16:34:03.603Z,19.87
2019-02-26T16:36:55.215Z,20.00
2019-02-26T16:39:30.853Z,20.23
2019-02-26T16:42:14.462Z,19.97
2019-02-26T16:44:50.151Z,20.53
2019-02-26T16:47:35.932Z,20.93
2019-02-26T16:50:14.558Z,18.77
2019-02-26T16:53:03.314Z,20.90
2019-02-26T16:55:39.843Z,20.43
2019-02-26T16:58:16.517Z,19.67
2019-02-26T17:00:52.696Z,20.50
2019-02-26T17:03:39.433Z,19.73
2019-02-26T17:06:20.500Z,19.70
2019-02-26T17:09:00.019Z,19.00
2019-02-26T17:11:39.698Z,20.53
2019-02-26T17:14:33.643Z,21.30
2019-02-26T17:17:04.765Z,22.20
2019-02-26T17:19:33.692Z,20.37
2019-02-26T17:22:07.373Z,20.83
2019-02-26T17:24:53.796Z,31.03
2019-02-26T17:27:32.131Z,123.03
2019-02-26T17:30:23.790Z,89.23
2019-02-26T17:33:02.159Z,62.63
2019-02-26T17:35:50.253Z,31.00
2019-02-26T17:38:25.973Z,24.00
2019-02-26T17:41:09.975Z,21.47
2019-02-26T17:43:49.239Z,20.60
2019-02-26T17:46:28.671Z,23.73
2019-02-26T17:49:05.784Z,22.17
2019-02-26T17:51:48.259Z,23.57
2019-02-26T17:54:28.930Z,25.13
2019-02-26T17:57:21.791Z,24.67
2019-02-26T18:00:00.693Z,24.63
2019-02-26T18:02:41.665Z,27.00
2019-02-26T18:05:21.606Z,27.17
2019-02-26T18:08:10.394Z,24.47
2019-02-26T18:10:43.509Z,24.47
2019-02-26T18:13:25.239Z,27.17
2019-02-26T18:16:08.935Z,28.93
2019-02-26T18:18:47.363Z,32.37
2019-02-26T18:21:21.638Z,30.07
2019-02-26T18:23:58.140Z,29.77
2019-02-26T18:26:37.564Z,26.47
2019-02-26T18:29:16.029Z,26.83
2019-02-26T18:31:51.269Z,26.90
2019-02-26T18:34:39.782Z,28.27
2019-02-26T18:37:17.722Z,27.70
2019-02-26T18:40:28.387Z,27.90
2019-02-26T18:43:11.657Z,26.57
2019-02-26T18:45:54.294Z,30.50
2019-02-26T18:48:33.466Z,30.97
2019-02-26T18:51:19.666Z,29.23
2019-02-26T18:53:59.526Z,27.90
2019-02-26T18:56:43.322Z,28.07
2019-02-26T18:59:21.614Z,29.70
2019-02-26T19:02:07.654Z,29.23
2019-02-26T19:04:49.266Z,28.03
2019-02-26T19:07:48.019Z,30.40
2019-02-26T19:10:25.667Z,32.07
2019-02-26T19:13:05.108Z,29.30
2019-02-26T19:16:20.624Z,31.33
2019-02-26T19:19:09.894Z,35.00
2019-02-26T19:21:54.201Z,34.47
2019-02-26T19:24:40.789Z,34.47
2019-02-26T19:27:21.290Z,31.20
2019-02-26T19:29:58.738Z,36.83
2019-02-26T19:32:33.592Z,36.70
2019-02-26T19:35:19.940Z,33.87
2019-02-26T19:37:55.955Z,32.90
2019-02-26T19:40:38.683Z,33.03
2019-02-26T19:43:28.899Z,34.40
2019-02-26T19:46:17.167Z,33.37
2019-02-26T19:48:49.741Z,33.40
2019-02-26T19:51:25.527Z,31.53
2019-02-26T19:53:59.696Z,32.57
2019-02-26T19:56:38.315Z,32.10
2019-02-26T19:59:07.791Z,34.93
2019-02-26T20:01:37.551Z,35.13
2019-02-26T20:04:06.639Z,33.20
2019-02-26T20:06:35.876Z,35.27
2019-02-26T20:09:06.517Z,33.23
2019-02-26T20:11:37.821Z,33.47
2019-02-26T20:14:11.390Z,32.87
2019-02-26T20:16:39.006Z,35.30
2019-02-26T20:19:08.650Z,32.63
2019-02-26T20:21:37.806Z,35.40
2019-02-26T20:24:06.852Z,35.67
2019-02-26T20:26:54.500Z,34.83
2019-02-26T20:29:24.263Z,36.53
2019-02-26T20:31:55.615Z,37.13
2019-02-26T20:34:24.395Z,37.20
2019-02-26T20:36:53.543Z,39.97
2019-02-26T20:39:22.822Z,43.43
2019-02-26T20:41:55.532Z,42.03
2019-02-26T20:44:23.670Z,41.47
2019-02-26T20:46:55.678Z,42.10
2019-02-26T20:49:24.758Z,38.53
2019-02-26T20:51:54.156Z,39.50
2019-02-26T20:54:23.207Z,39.43
2019-02-26T20:56:52.120Z,39.47
2019-02-26T20:59:21.401Z,38.93
2019-02-26T21:01:50.564Z,37.33
2019-02-26T21:04:21.046Z,35.97
2019-02-26T21:06:51.461Z,36.07
2019-02-26T21:09:20.343Z,35.57
2019-02-26T21:11:49.623Z,35.50
2019-02-26T21:14:18.892Z,36.13
2019-02-26T21:16:48.536Z,35.07
2019-02-26T21:19:17.576Z,39.50
2019-02-26T21:21:49.139Z,37.10
2019-02-26T21:24:18.423Z,38.97
2019-02-26T21:26:52.647Z,40.70
2019-02-26T21:29:19.516Z,41.90
2019-02-26T21:31:49.719Z,44.27
2019-02-26T21:34:19.878Z,42.10
2019-02-26T21:36:49.042Z,42.63
2019-02-26T21:39:18.195Z,41.80
2019-02-26T21:41:47.482Z,42.50
2019-02-26T21:44:16.277Z,43.90
2019-02-26T21:46:45.201Z,42.40
2019-02-26T21:49:14.135Z,44.57
2019-02-26T21:51:44.270Z,45.43
2019-02-26T21:54:13.771Z,44.27
2019-02-26T21:56:42.929Z,45.63
2019-02-26T21:59:11.850Z,46.13
2019-02-26T22:01:41.395Z,45.77
2019-02-26T22:04:11.616Z,44.07
2019-02-26T22:06:44.497Z,46.33
2019-02-26T22:09:10.900Z,44.90
2019-02-26T22:11:41.744Z,42.90
2019-02-26T22:14:13.347Z,42.43
2019-02-26T22:16:43.149Z,44.47
2019-02-26T22:19:12.351Z,43.27
2019-02-26T22:21:51.819Z,42.60
2019-02-26T22:24:19.796Z,43.13
2019-02-26T22:26:48.841Z,43.80
2019-02-26T22:29:18.962Z,44.13
2019-02-26T22:31:52.200Z,44.80
2019-02-26T22:34:21.361Z,42.67
2019-02-26T22:36:54.625Z,45.53
2019-02-26T22:39:23.645Z,43.57
2019-02-26T22:41:52.447Z,44.63
2019-02-26T22:44:25.354Z,41.90
2019-02-26T22:46:54.733Z,42.90
2019-02-26T22:49:24.041Z,43.80
2019-02-26T22:51:53.059Z,43.57
2019-02-26T22:54:21.863Z,43.07
2019-02-26T22:56:50.539Z,45.80
2019-02-26T22:59:19.464Z,43.53
2019-02-26T23:01:48.865Z,41.97
2019-02-26T23:04:19.832Z,42.23
2019-02-26T23:06:48.869Z,42.13
2019-02-26T23:09:23.552Z,41.37
2019-02-26T23:11:53.333Z,41.77
2019-02-26T23:14:23.558Z,41.23
2019-02-26T23:16:52.689Z,41.03
2019-02-26T23:19:22.123Z,40.33
2019-02-26T23:21:51.522Z,41.23
2019-02-26T23:24:22.726Z,43.77
2019-02-26T23:26:52.368Z,40.23
2019-02-26T23:29:21.408Z,40.47
2019-02-26T23:31:57.054Z,38.43
2019-02-26T23:34:26.214Z,40.30
2019-02-26T23:36:55.261Z,40.53
2019-02-26T23:39:24.659Z,39.77
2019-02-26T23:41:55.979Z,38.30
2019-02-26T23:44:26.222Z,39.67
2019-02-26T23:46:55.029Z,38.70
2019-02-26T23:49:23.705Z,40.67
2019-02-26T23:51:53.853Z,41.67
2019-02-26T23:54:24.069Z,39.67
2019-02-26T23:56:52.994Z,41.93
2019-02-26T23:59:22.155Z,41.80
